Aspelt, Luxembourg
Current Conditions -  °F | °C
As of 3:20 AM on Sunday 23 Nov 2014 (Local Time) from ELLX Reporting Station
NA  
Wind Chill: 45°   Ceiling: NA
Heat Index: 45°   Visibility: NA
Dew Point: 43°   Wind: 2mph
Humidity: 93%   Direction: NA
Pressure: 30.12"   Gusts: NA
Location:  49.52°N, 6.22°E
Report Text: ELLX 230220Z AUTO VRB02KT //// 07/06 Q1020
Loading
Personal Weather Stations






























Interactive Weather Map New forecast layout! Learn more

10-Day Weather Forecast

Advertisements
Track Severe Weather on mobile